King of Scandinavia — OVOL2 — position and weather

sailwx.info

Track history (hours):
 
Tides and Currents Weather Stations Pressure Air Temp Water Temp Dewpoint Dewpoint Depression Visibility Wind Speed Wind Dir Waves Ship Positions

King of Scandinavia

Ship's website: http://www.dfds.co.uk/DSW/EN/OnBoard/na/KING.htm

Last reported at 2020-Aug-08 23:28 UTC. Time now 2020-Aug-09 04:54 UTC.
Position N 53°42' E 001°45'.

Length 166 m; beam 27.6 m; draft 6.2 m.

Type: Ship. MMSI: 220449000.

Date/timePositionNaut miles runAvg speedWind from/ knotsBaromVisibWave heightAir tempDewpointWater temp
2020-Aug-08 23:28N 53°42' E 001°45'1714.6
2020-Aug-08 22:18N 53°35' E 002°11'1114.3
2020-Aug-08 21:30N 53°28' E 002°27'6415.7
2020-Aug-08 17:27N 52°51' E 003°53'3411.7
2020-Aug-08 14:29N 52°28' E 004°35'0 0.0
2020-Aug-08 12:59N 52°28' E 004°35'0 0.0
2020-Aug-08 11:29N 52°28' E 004°35'0 0.0
2020-Aug-08 10:59N 52°28' E 004°35'0 0.0
2020-Aug-08 09:29N 52°28' E 004°35'0 0.0
2020-Aug-08 08:59N 52°28' E 004°35'0 0.0
2020-Aug-08 07:59N 52°28' E 004°35'3511.8
2020-Aug-08 05:00N 52°51' E 003°51'6315.7
2020-Aug-08 01:01N 53°28' E 002°27'1817.7
2020-Aug-08 00:00N 53°37' E 002°01'8418.7
2020-Aug-07 19:31N 54°24' E 000°02'6119.1
2020-Aug-07 16:19N 55°00' W 001°22'3 1.3
2020-Aug-07 13:57N 54°59' W 001°27'0 0.0
2020-Aug-07 12:57N 54°59' W 001°27'0 0.0
2020-Aug-07 12:27N 54°59' W 001°27'0 0.0
2020-Aug-07 10:27N 54°59' W 001°27'0 0.0
2020-Aug-07 10:00N 54°59' W 001°27'11212.4
2020-Aug-07 01:00N 53°54' E 001°10'14215.7
2020-Aug-06 16:01N 52°33' E 004°23'9 3.6
2020-Aug-06 13:28N 52°28' E 004°35'20 2.7
2020-Aug-06 06:00N 52°40' E 004°09'815.4
2020-Aug-06 05:30N 52°45' E 003°60'12517.1
2020-Aug-05 22:09N 53°56' E 001°06'4018.4
2020-Aug-05 20:00N 54°19' E 000°12'7011.5
2020-Aug-05 13:56N 54°59' W 001°27'0 0.0
2020-Aug-05 12:59N 54°59' W 001°27'0 0.0
2020-Aug-05 12:23N 54°59' W 001°27'0 0.0
2020-Aug-05 09:29N 54°59' W 001°27'24814.7
2020-Aug-04 16:35N 52°36' E 004°17'14 2.5
2020-Aug-04 10:59N 52°28' E 004°35'0 0.0
2020-Aug-04 09:29N 52°28' E 004°35'0 0.0
2020-Aug-04 08:59N 52°28' E 004°35'0 0.0
2020-Aug-04 08:29N 52°28' E 004°35'14714.7
2020-Aug-03 22:31N 53°52' E 001°14'11418.0
2020-Aug-03 16:11N 55°00' W 001°22'3 4.4
2020-Aug-03 15:30N 54°59' W 001°27'0 0.0
2020-Aug-03 13:00N 54°59' W 001°27'0 0.0
2020-Aug-03 10:36N 54°59' W 001°27'13 3.6
2020-Aug-03 07:00N 54°54' W 001°07'23616.1
2020-Aug-02 16:20N 52°36' E 004°17'14 5.0
2020-Aug-02 13:30N 52°28' E 004°35'0 0.0
2020-Aug-02 12:57N 52°28' E 004°35'0 0.0
2020-Aug-02 12:30N 52°28' E 004°35'0 0.0
2020-Aug-02 10:30N 52°28' E 004°35'0 0.0
2020-Aug-02 09:57N 52°28' E 004°35'13 3.7
2020-Aug-02 06:30N 52°35' E 004°18'2516.3
2020-Aug-02 05:00N 52°52' E 003°49'815.8
2020-Aug-02 04:28N 52°57' E 003°38'1015.7
2020-Aug-02 03:50N 53°04' E 003°25'3317.8
2020-Aug-02 01:58N 53°22' E 002°39'1717.4
2020-Aug-02 01:00N 53°33' E 002°17'15617.3
2020-Aug-01 16:00N 55°01' W 001°23'3 0.5
2020-Aug-01 11:22N 54°59' W 001°27'17412.3
2020-Jul-31 21:17N 53°22' E 002°39'8915.3
2020-Jul-31 15:30N 52°28' E 004°35'0 0.1
2020-Jul-31 12:00N 52°28' E 004°35'0 0.0
2020-Jul-31 10:00N 52°28' E 004°35'12 3.4
2020-Jul-31 06:30N 52°35' E 004°19'815.6
2020-Jul-31 06:00N 52°40' E 004°10'1615.5
2020-Jul-31 05:00N 52°50' E 003°50'1615.6
2020-Jul-31 04:00N 53°01' E 003°31'5417.9
2020-Jul-31 01:00N 53°32' E 002°19'917.2
2020-Jul-31 00:30N 53°36' E 002°06'3417.2
2020-Jul-30 22:30N 53°52' E 001°14'1818.2
2020-Jul-30 21:30N 54°03' E 000°50'1818.1
2020-Jul-30 20:30N 54°14' E 000°25'1818.2
2020-Jul-30 19:30N 54°25' E 000°00'6110.1
2020-Jul-30 13:28N 54°59' W 001°27'0 0.0
2020-Jul-30 10:28N 54°59' W 001°27'0 0.0
2020-Jul-30 08:58N 54°59' W 001°27'0 0.0
2020-Jul-30 08:25N 54°59' W 001°27'  
Track history (hours):
 
Tides and Currents Weather Stations Pressure Air Temp Water Temp Dewpoint Dewpoint Depression Visibility Wind Speed Wind Dir Waves Ship Positions

King of Scandinavia

Ship's website: http://www.dfds.co.uk/DSW/EN/OnBoard/na/KING.htm

Last reported at 2020-Aug-08 23:28 UTC. Time now 2020-Aug-09 04:54 UTC.
Position N 53°42' E 001°45'.

Length 166 m; beam 27.6 m; draft 6.2 m.

Type: Ship. MMSI: 220449000.

Date/timePositionNaut miles runAvg speedWind from/ knotsBaromVisibWave heightAir tempDewpointWater temp
2020-Aug-08 23:28N 53°42' E 001°45'1714.6
2020-Aug-08 22:18N 53°35' E 002°11'1114.3
2020-Aug-08 21:30N 53°28' E 002°27'6415.7
2020-Aug-08 17:27N 52°51' E 003°53'3411.7
2020-Aug-08 14:29N 52°28' E 004°35'0 0.0
2020-Aug-08 12:59N 52°28' E 004°35'0 0.0
2020-Aug-08 11:29N 52°28' E 004°35'0 0.0
2020-Aug-08 10:59N 52°28' E 004°35'0 0.0
2020-Aug-08 09:29N 52°28' E 004°35'0 0.0
2020-Aug-08 08:59N 52°28' E 004°35'0 0.0
2020-Aug-08 07:59N 52°28' E 004°35'3511.8
2020-Aug-08 05:00N 52°51' E 003°51'6315.7
2020-Aug-08 01:01N 53°28' E 002°27'1817.7
2020-Aug-08 00:00N 53°37' E 002°01'8418.7
2020-Aug-07 19:31N 54°24' E 000°02'6119.1
2020-Aug-07 16:19N 55°00' W 001°22'3 1.3
2020-Aug-07 13:57N 54°59' W 001°27'0 0.0
2020-Aug-07 12:57N 54°59' W 001°27'0 0.0
2020-Aug-07 12:27N 54°59' W 001°27'0 0.0
2020-Aug-07 10:27N 54°59' W 001°27'0 0.0
2020-Aug-07 10:00N 54°59' W 001°27'11212.4
2020-Aug-07 01:00N 53°54' E 001°10'14215.7
2020-Aug-06 16:01N 52°33' E 004°23'9 3.6
2020-Aug-06 13:28N 52°28' E 004°35'20 2.7
2020-Aug-06 06:00N 52°40' E 004°09'815.4
2020-Aug-06 05:30N 52°45' E 003°60'12517.1
2020-Aug-05 22:09N 53°56' E 001°06'4018.4
2020-Aug-05 20:00N 54°19' E 000°12'7011.5
2020-Aug-05 13:56N 54°59' W 001°27'0 0.0
2020-Aug-05 12:59N 54°59' W 001°27'0 0.0
2020-Aug-05 12:23N 54°59' W 001°27'0 0.0
2020-Aug-05 09:29N 54°59' W 001°27'24814.7
2020-Aug-04 16:35N 52°36' E 004°17'14 2.5
2020-Aug-04 10:59N 52°28' E 004°35'0 0.0
2020-Aug-04 09:29N 52°28' E 004°35'0 0.0
2020-Aug-04 08:59N 52°28' E 004°35'0 0.0
2020-Aug-04 08:29N 52°28' E 004°35'14714.7
2020-Aug-03 22:31N 53°52' E 001°14'11418.0
2020-Aug-03 16:11N 55°00' W 001°22'3 4.4
2020-Aug-03 15:30N 54°59' W 001°27'0 0.0
2020-Aug-03 13:00N 54°59' W 001°27'0 0.0
2020-Aug-03 10:36N 54°59' W 001°27'13 3.6
2020-Aug-03 07:00N 54°54' W 001°07'23616.1
2020-Aug-02 16:20N 52°36' E 004°17'14 5.0
2020-Aug-02 13:30N 52°28' E 004°35'0 0.0
2020-Aug-02 12:57N 52°28' E 004°35'0 0.0
2020-Aug-02 12:30N 52°28' E 004°35'0 0.0
2020-Aug-02 10:30N 52°28' E 004°35'0 0.0
2020-Aug-02 09:57N 52°28' E 004°35'13 3.7
2020-Aug-02 06:30N 52°35' E 004°18'2516.3
2020-Aug-02 05:00N 52°52' E 003°49'815.8
2020-Aug-02 04:28N 52°57' E 003°38'1015.7
2020-Aug-02 03:50N 53°04' E 003°25'3317.8
2020-Aug-02 01:58N 53°22' E 002°39'1717.4
2020-Aug-02 01:00N 53°33' E 002°17'15617.3
2020-Aug-01 16:00N 55°01' W 001°23'3 0.5
2020-Aug-01 11:22N 54°59' W 001°27'17412.3
2020-Jul-31 21:17N 53°22' E 002°39'8915.3
2020-Jul-31 15:30N 52°28' E 004°35'0 0.1
2020-Jul-31 12:00N 52°28' E 004°35'0 0.0
2020-Jul-31 10:00N 52°28' E 004°35'12 3.4
2020-Jul-31 06:30N 52°35' E 004°19'815.6
2020-Jul-31 06:00N 52°40' E 004°10'1615.5
2020-Jul-31 05:00N 52°50' E 003°50'1615.6
2020-Jul-31 04:00N 53°01' E 003°31'5417.9
2020-Jul-31 01:00N 53°32' E 002°19'917.2
2020-Jul-31 00:30N 53°36' E 002°06'3417.2
2020-Jul-30 22:30N 53°52' E 001°14'1818.2
2020-Jul-30 21:30N 54°03' E 000°50'1818.1
2020-Jul-30 20:30N 54°14' E 000°25'1818.2
2020-Jul-30 19:30N 54°25' E 000°00'6110.1
2020-Jul-30 13:28N 54°59' W 001°27'0 0.0
2020-Jul-30 10:28N 54°59' W 001°27'0 0.0
2020-Jul-30 08:58N 54°59' W 001°27'0 0.0
2020-Jul-30 08:25N 54°59' W 001°27'  

Dump ship's entire track history